Search for airport 
image banner adimage banner adimage banner ad
image banner ad

7PA7 - Wayne Memorial Hospital

Located in Honesdale, United States

ICAO - 7PA7, IATA -

Data provided by Airmate  

General information

Coordinates: N41°35'23" W75°15'43"
Elevation is 982 feet MSL.
 
View others Airports in Pennsylvania

Operational data

Special qualification required
Current time UTC:
Current local time:
Weather at : KMSV - Sullivan County Intl ( 41 km )
METAR: KMSV 092210Z AUTO VRB04KT 5SM RA BR FEW011 OVC034 06/06 A2994 RMK AO2 P0002
View NOTAMs / SUP AIP / TFR affecting this airport [VIEW]
Communications frequencies: [VIEW]

Runways:

Airport contact information

Address: Honesdale United States

Satellite view of 7PA7